Strona główna
METAR-TAF:

METAR-TAF

Lotnisko :

Watertown, Dakota Południowa, Stany Zjednoczone

Szerokość geograficzna: 44-54-17N, Długość geograficzna: 097-08-58W, wysokość: 532 m

Aktualna obserwacja pogody

Raport powstał 14 minut temu, godzina 11:25 UTC
Cisza
Temperatura 12°C
Wilgotność 94%
Ciśnienie 1015 hPa
Widzialność: 1.6 km
bezchmurnie
zamglenie

METAR: KATY 031125Z AUTO 00000KT 1SM BR CLR 12/11 A2996 RMK AO2 T01170111

czas: 06:39 (11:39 UTC)

Prognoza

Raport powstał 6 godziny i 18 minut temu, godzina 05:21 UTC
Prognoza ważna od 03 godzina 06 UTC do 04 godzina 06 UTC
Wiatr 3 kt od zachodnio-północny zachód
Widzialność: 10 km
Mało chmury na wysokości 25000 ft
Od 03 godzina 2100 UTC
Wiatr 6 kt z kierunków zmiennych
Widzialność: 10 km
Mało chmury na wysokości 25000 ft

TAF: KATY 030521Z 0306/0406 30003KT P6SM FEW250 FM032100 VRB06KT P6SM FEW250

Obserwacja i prognoza pogody dla ponad 4000 lotnisk (raport METAR i TAF).

Dostępne stacje oznaczono żółtymi i czerwonymi punktami na mapie.

Najedź kursorem aby zobaczyć nazwę stacji.

Kliknij aby zobaczyć obserwacje i prognozy pogody.

Aby zmienić mapę: kliknij na zielony przycisk z czarnym krzyżykiem, aby powiększyć; na zielony przycisk z myślnikiem, aby pomniejszyć; na zielone strzałki, aby przejść do map sąsiednich.


METAR-TAF: